Time;durP1;ratioP1;P1;durP2;ratioP2;P2;SDS_P1;SDS_P2;PMS_P1;PMS_P2;Temp;Humidity;BMP_temperature;BMP_pressure;BME280_temperature;BME280_humidity;BME280_pressure;Samples;Min_cycle;Max_cycle;Signal;HPM_P1;HPM_P2
2023/04/30 00:02:02;;;;;;;;;;;;;;;;;;4981367;28;19932;-61
2023/04/30 00:04:29;;;;;;;;;;;;;;;;;;5005420;28;20431;-62
2023/04/30 00:06:56;;;;;;;;;;;;;;;;;;4998689;28;19929;-62
2023/04/30 00:09:30;;;;;;;;;;;;;;;;;;4999863;28;19925;-62
2023/04/30 00:11:57;;;;;;;;;;;;;;;;;;4998508;28;19929;-60
2023/04/30 00:14:31;;;;;;;;;;;;;;;;;;5001104;28;19921;-49
2023/04/30 00:16:58;;;;;;;;;;;;;;;;;;4996031;28;19925;-51
2023/04/30 00:19:25;;;;;;;;;;;;;;;;;;5000920;28;20411;-49
2023/04/30 00:22:00;;;;;;;;;;;;;;;;;;5001083;28;19929;-47
2023/04/30 00:24:27;;;;;;;;;;;;;;;;;;5015392;28;19925;-47
2023/04/30 00:27:01;;;;;;;;;;;;;;;;;;5017524;28;19921;-48
2023/04/30 00:29:28;;;;;;;;;;;;;;;;;;5017766;28;19936;-66
2023/04/30 00:32:02;;;;;;;;;;;;;;;;;;5019046;28;19939;-65
2023/04/30 00:34:29;;;;;;;;;;;;;;;;;;5018546;28;19976;-66
2023/04/30 00:36:56;;;;;;;;;;;;;;;;;;5017615;28;19935;-66
2023/04/30 00:39:30;;;;;;;;;;;;;;;;;;5016561;28;19929;-60
2023/04/30 00:41:57;;;;;;;;;;;;;;;;;;5018650;28;20663;-60
2023/04/30 00:44:31;;;;;;;;;;;;;;;;;;5015894;28;19921;-60
2023/04/30 00:46:58;;;;;;;;;;;;;;;;;;5018020;28;19931;-59
2023/04/30 00:49:25;;;;;;;;;;;;;;;;;;5019060;28;19926;-59
2023/04/30 00:52:00;;;;;;;;;;;;;;;;;;5019711;28;19939;-60
2023/04/30 00:54:27;;;;;;;;;;;;;;;;;;5019991;28;20311;-59
2023/04/30 00:57:00;;;;;;;;;;;;;;;;;;5019298;28;19929;-59
2023/04/30 00:59:28;;;;;;;;;;;;;;;;;;5018855;28;20004;-50
2023/04/30 01:01:56;;;;;;;;;;;;;;;;;;5015907;28;20012;-49
2023/04/30 01:04:29;;;;;;;;;;;;;;;;;;5018671;28;19965;-53
2023/04/30 01:06:56;;;;;;;;;;;;;;;;;;5019303;28;19951;-54
2023/04/30 01:09:30;;;;;;;;;;;;;;;;;;5017073;28;19921;-55
2023/04/30 01:11:57;;;;;;;;;;;;;;;;;;5019962;28;19929;-49
2023/04/30 01:14:24;;;;;;;;;;;;;;;;;;5019297;28;21526;-48
2023/04/30 01:16:58;;;;;;;;;;;;;;;;;;5020395;28;19921;-45
2023/04/30 01:19:25;;;;;;;;;;;;;;;;;;5017773;28;20355;-48
2023/04/30 01:22:00;;;;;;;;;;;;;;;;;;5018589;28;20535;-45
2023/04/30 01:24:27;;;;;;;;;;;;;;;;;;5022859;28;19968;-46
2023/04/30 01:27:01;;;;;;;;;;;;;;;;;;5024198;28;19925;-62
2023/04/30 01:29:28;;;;;;;;;;;;;;;;;;5018880;28;20019;-62
2023/04/30 01:31:55;;;;;;;;;;;;;;;;;;5020822;28;20012;-63
2023/04/30 01:34:29;;;;;;;;;;;;;;;;;;5025334;28;19921;-62
2023/04/30 01:36:56;;;;;;;;;;;;;;;;;;5020666;28;19987;-59
2023/04/30 01:39:30;;;;;;;;;;;;;;;;;;5021672;28;19921;-52
2023/04/30 01:41:57;;;;;;;;;;;;;;;;;;5022149;28;20008;-66
2023/04/30 01:44:24;;;;;;;;;;;;;;;;;;5020924;28;19928;-66
2023/04/30 01:46:58;;;;;;;;;;;;;;;;;;5017203;28;19925;-66
2023/04/30 01:49:25;;;;;;;;;;;;;;;;;;5022611;28;19931;-66
2023/04/30 01:52:00;;;;;;;;;;;;;;;;;;5023440;28;20131;-66
2023/04/30 01:54:27;;;;;;;;;;;;;;;;;;5022217;28;19921;-66
2023/04/30 01:57:22;;;;;;;;;;;;;;;;;;5019907;28;19919;-49
2023/04/30 01:59:49;;;;;;;;;;;;;;;;;;5023242;28;20372;-46
2023/04/30 02:02:23;;;;;;;;;;;;;;;;;;5022206;28;20364;-49
2023/04/30 02:04:50;;;;;;;;;;;;;;;;;;5023620;28;19940;-46
2023/04/30 02:07:17;;;;;;;;;;;;;;;;;;5017646;28;19927;-62
2023/04/30 02:09:51;;;;;;;;;;;;;;;;;;5020995;28;19931;-47
2023/04/30 02:12:18;;;;;;;;;;;;;;;;;;5018974;28;19929;-51
2023/04/30 02:14:52;;;;;;;;;;;;;;;;;;5018856;28;19927;-49
2023/04/30 02:17:19;;;;;;;;;;;;;;;;;;5019175;28;20024;-53
2023/04/30 02:19:46;;;;;;;;;;;;;;;;;;5021750;28;20372;-47
2023/04/30 02:22:20;;;;;;;;;;;;;;;;;;5021409;28;19929;-52
2023/04/30 02:24:47;;;;;;;;;;;;;;;;;;5021484;28;19927;-59
2023/04/30 02:27:21;;;;;;;;;;;;;;;;;;5017661;28;19939;-59
2023/04/30 02:29:48;;;;;;;;;;;;;;;;;;5020188;28;21120;-58
2023/04/30 02:32:15;;;;;;;;;;;;;;;;;;5020434;28;19928;-58
2023/04/30 02:34:49;;;;;;;;;;;;;;;;;;5019091;28;19979;-60
2023/04/30 02:37:16;;;;;;;;;;;;;;;;;;5019894;28;19920;-53
2023/04/30 02:39:50;;;;;;;;;;;;;;;;;;5021270;28;19925;-43
2023/04/30 02:42:17;;;;;;;;;;;;;;;;;;5018249;28;19954;-44
2023/04/30 02:44:44;;;;;;;;;;;;;;;;;;5018626;28;19920;-46
2023/04/30 02:47:18;;;;;;;;;;;;;;;;;;5020049;28;19961;-44
2023/04/30 02:49:45;;;;;;;;;;;;;;;;;;5018694;28;19932;-46
2023/04/30 02:52:12;;;;;;;;;;;;;;;;;;5021512;28;20439;-49
2023/04/30 02:54:46;;;;;;;;;;;;;;;;;;5021956;28;19921;-51
2023/04/30 02:57:20;;;;;;;;;;;;;;;;;;4999265;28;19935;-51
2023/04/30 02:59:47;;;;;;;;;;;;;;;;;;5021228;28;20403;-53
2023/04/30 03:02:15;;;;;;;;;;;;;;;;;;5021824;28;19929;-46
2023/04/30 03:04:49;;;;;;;;;;;;;;;;;;5023205;28;19925;-46
2023/04/30 03:07:16;;;;;;;;;;;;;;;;;;5017847;28;19929;-67
2023/04/30 03:09:50;;;;;;;;;;;;;;;;;;5019278;28;19929;-67
2023/04/30 03:12:18;;;;;;;;;;;;;;;;;;5020691;28;19929;-67
2023/04/30 03:14:45;;;;;;;;;;;;;;;;;;5018168;28;20837;-66
2023/04/30 03:17:18;;;;;;;;;;;;;;;;;;5020695;28;20365;-67
2023/04/30 03:19:45;;;;;;;;;;;;;;;;;;5022784;28;19930;-66
2023/04/30 03:22:12;;;;;;;;;;;;;;;;;;5023484;28;20230;-62
2023/04/30 03:24:46;;;;;;;;;;;;;;;;;;4997432;28;19925;-61
2023/04/30 03:27:15;;;;;;;;;;;;;;;;;;5002886;28;20597;-62
2023/04/30 03:29:50;;;;;;;;;;;;;;;;;;4998417;28;19921;-62
2023/04/30 03:32:17;;;;;;;;;;;;;;;;;;5002150;28;20272;-47
2023/04/30 03:34:44;;;;;;;;;;;;;;;;;;5000745;28;19935;-48
2023/04/30 03:37:17;;;;;;;;;;;;;;;;;;4998892;28;19936;-51
2023/04/30 03:39:45;;;;;;;;;;;;;;;;;;5003248;28;19935;-55
2023/04/30 03:42:18;;;;;;;;;;;;;;;;;;5000104;28;20282;-49
2023/04/30 03:44:45;;;;;;;;;;;;;;;;;;4999617;28;19929;-52
2023/04/30 03:47:13;;;;;;;;;;;;;;;;;;5001856;28;19936;-53
2023/04/30 03:49:54;;;;;;;;;;;;;;;;;;4987340;28;19925;-67
2023/04/30 03:52:21;;;;;;;;;;;;;;;;;;5001499;28;20011;-67
2023/04/30 03:54:55;;;;;;;;;;;;;;;;;;5002645;28;19925;-67
2023/04/30 03:57:22;;;;;;;;;;;;;;;;;;4998413;28;19925;-65
2023/04/30 03:59:49;;;;;;;;;;;;;;;;;;4982688;28;19929;-57
2023/04/30 04:02:24;;;;;;;;;;;;;;;;;;5000487;28;19922;-67
2023/04/30 04:04:51;;;;;;;;;;;;;;;;;;5003194;28;19933;-67
2023/04/30 04:07:25;;;;;;;;;;;;;;;;;;5002335;28;19928;-67
2023/04/30 04:09:52;;;;;;;;;;;;;;;;;;5000963;28;19928;-67
2023/04/30 04:12:19;;;;;;;;;;;;;;;;;;4978544;28;19921;-67
2023/04/30 04:14:53;;;;;;;;;;;;;;;;;;5002480;28;19935;-67
2023/04/30 04:17:20;;;;;;;;;;;;;;;;;;4999348;28;19932;-51
2023/04/30 04:19:54;;;;;;;;;;;;;;;;;;5000637;28;19984;-44
2023/04/30 04:22:22;;;;;;;;;;;;;;;;;;5000639;28;20508;-46
2023/04/30 04:24:50;;;;;;;;;;;;;;;;;;5011524;28;19925;-49
2023/04/30 04:27:24;;;;;;;;;;;;;;;;;;5014687;28;19921;-59
2023/04/30 04:29:51;;;;;;;;;;;;;;;;;;5020810;28;19925;-63
2023/04/30 04:32:18;;;;;;;;;;;;;;;;;;5020100;28;19960;-62
2023/04/30 04:34:53;;;;;;;;;;;;;;;;;;5021333;28;19975;-62
2023/04/30 04:37:20;;;;;;;;;;;;;;;;;;5020743;28;19929;-63
2023/04/30 04:39:54;;;;;;;;;;;;;;;;;;5018617;28;19931;-62
2023/04/30 04:42:22;;;;;;;;;;;;;;;;;;5018542;28;19971;-62
2023/04/30 04:44:55;;;;;;;;;;;;;;;;;;5016946;28;19932;-62
2023/04/30 04:47:22;;;;;;;;;;;;;;;;;;5018674;28;19925;-60
2023/04/30 04:49:49;;;;;;;;;;;;;;;;;;5016298;28;19932;-60
2023/04/30 04:52:23;;;;;;;;;;;;;;;;;;5016645;28;19925;-60
2023/04/30 04:54:50;;;;;;;;;;;;;;;;;;5018230;28;20364;-60
2023/04/30 04:57:24;;;;;;;;;;;;;;;;;;5020013;28;20278;-60
2023/04/30 04:59:51;;;;;;;;;;;;;;;;;;5021517;28;21744;-54
2023/04/30 05:02:20;;;;;;;;;;;;;;;;;;5019663;28;20866;-49
2023/04/30 05:04:53;;;;;;;;;;;;;;;;;;5017222;28;19937;-53
2023/04/30 05:07:20;;;;;;;;;;;;;;;;;;5020214;28;19932;-50
2023/04/30 05:09:54;;;;;;;;;;;;;;;;;;5019949;28;19921;-51
2023/04/30 05:12:22;;;;;;;;;;;;;;;;;;5022144;28;19921;-55
2023/04/30 05:14:50;;;;;;;;;;;;;;;;;;5022335;28;19934;-51
2023/04/30 05:17:23;;;;;;;;;;;;;;;;;;5019035;28;19921;-53
2023/04/30 05:19:50;;;;;;;;;;;;;;;;;;5018846;28;20388;-50
2023/04/30 05:22:24;;;;;;;;;;;;;;;;;;5018982;28;19921;-52
2023/04/30 05:24:51;;;;;;;;;;;;;;;;;;4999229;28;19929;-49
2023/04/30 05:27:18;;;;;;;;;;;;;;;;;;4998246;28;19925;-48
2023/04/30 05:29:52;;;;;;;;;;;;;;;;;;5000413;28;20059;-47
2023/04/30 05:32:19;;;;;;;;;;;;;;;;;;5000626;28;20032;-45
2023/04/30 05:34:54;;;;;;;;;;;;;;;;;;5000635;28;20399;-47
2023/04/30 05:37:21;;;;;;;;;;;;;;;;;;5001142;28;19928;-47
2023/04/30 05:39:48;;;;;;;;;;;;;;;;;;5003457;28;19921;-45
2023/04/30 05:42:22;;;;;;;;;;;;;;;;;;5001169;28;19925;-59
2023/04/30 05:44:49;;;;;;;;;;;;;;;;;;5000168;28;20029;-59
2023/04/30 05:47:23;;;;;;;;;;;;;;;;;;5002958;28;20011;-59
2023/04/30 05:49:50;;;;;;;;;;;;;;;;;;5003134;28;19931;-59
2023/04/30 05:52:17;;;;;;;;;;;;;;;;;;5004565;28;20464;-59
2023/04/30 05:54:51;;;;;;;;;;;;;;;;;;5001451;28;19928;-57
2023/04/30 05:57:19;;;;;;;;;;;;;;;;;;5000760;28;19921;-51
2023/04/30 05:59:53;;;;;;;;;;;;;;;;;;5002417;28;19921;-48
2023/04/30 06:02:20;;;;;;;;;;;;;;;;;;5001650;28;20316;-49
2023/04/30 06:04:47;;;;;;;;;;;;;;;;;;5001318;28;19964;-49
2023/04/30 06:07:21;;;;;;;;;;;;;;;;;;5001546;28;19928;-47
2023/04/30 06:09:48;;;;;;;;;;;;;;;;;;4998536;28;19921;-48
2023/04/30 06:12:22;;;;;;;;;;;;;;;;;;5004101;28;19927;-51
2023/04/30 06:14:50;;;;;;;;;;;;;;;;;;5002871;28;19936;-49
2023/04/30 06:17:17;;;;;;;;;;;;;;;;;;4999578;28;19932;-54
2023/04/30 06:19:50;;;;;;;;;;;;;;;;;;4997736;28;19937;-51
2023/04/30 06:22:17;;;;;;;;;;;;;;;;;;5005112;28;20344;-64
2023/04/30 06:24:51;;;;;;;;;;;;;;;;;;5013240;28;19928;-63
2023/04/30 06:27:18;;;;;;;;;;;;;;;;;;5021089;28;19921;-64
2023/04/30 06:29:45;;;;;;;;;;;;;;;;;;5020988;28;19921;-64
2023/04/30 06:32:19;;;;;;;;;;;;;;;;;;5020243;28;20458;-64
2023/04/30 06:34:47;;;;;;;;;;;;;;;;;;5022846;28;20392;-63
2023/04/30 06:37:20;;;;;;;;;;;;;;;;;;4998235;28;19921;-63
2023/04/30 06:39:47;;;;;;;;;;;;;;;;;;5019689;28;20287;-61
2023/04/30 06:42:14;;;;;;;;;;;;;;;;;;5021250;28;19927;-60
2023/04/30 06:44:48;;;;;;;;;;;;;;;;;;5020452;28;19924;-61
2023/04/30 06:47:15;;;;;;;;;;;;;;;;;;5016025;28;20406;-61
2023/04/30 06:49:49;;;;;;;;;;;;;;;;;;5014969;28;19940;-63
2023/04/30 06:52:16;;;;;;;;;;;;;;;;;;5016508;28;20380;-45
2023/04/30 06:54:44;;;;;;;;;;;;;;;;;;5003375;28;20056;-60
2023/04/30 06:57:17;;;;;;;;;;;;;;;;;;5007905;28;19921;-60
2023/04/30 06:59:44;;;;;;;;;;;;;;;;;;5010523;28;19925;-60
2023/04/30 07:02:19;;;;;;;;;;;;;;;;;;5013095;28;21768;-60
2023/04/30 07:04:48;;;;;;;;;;;;;;;;;;5006709;28;22028;-61
2023/04/30 07:07:15;;;;;;;;;;;;;;;;;;5007760;28;19931;-61
2023/04/30 07:09:49;;;;;;;;;;;;;;;;;;5006965;28;19921;-47
2023/04/30 07:12:17;;;;;;;;;;;;;;;;;;5007931;28;19947;-61
2023/04/30 07:14:52;;;;;;;;;;;;;;;;;;5003627;28;19927;-61
2023/04/30 07:17:19;;;;;;;;;;;;;;;;;;5007305;28;19925;-61
2023/04/30 07:19:53;;;;;;;;;;;;;;;;;;5010745;28;20517;-61
2023/04/30 07:22:21;;;;;;;;;;;;;;;;;;5010468;28;19925;-60
2023/04/30 07:24:48;;;;;;;;;;;;;;;;;;5006615;28;19921;-61
2023/04/30 07:27:21;;;;;;;;;;;;;;;;;;5009655;28;20850;-51
2023/04/30 07:29:48;;;;;;;;;;;;;;;;;;5008248;28;19936;-58
2023/04/30 07:32:25;;;;;;;;;;;;;;;;;;5022961;28;19925;-56
2023/04/30 07:34:53;;;;;;;;;;;;;;;;;;5018062;28;20344;-58
2023/04/30 07:37:20;;;;;;;;;;;;;;;;;;5016668;28;19972;-56
2023/04/30 07:39:54;;;;;;;;;;;;;;;;;;5016892;28;20381;-53
2023/04/30 07:42:22;;;;;;;;;;;;;;;;;;5019377;28;19932;-57
2023/04/30 07:44:56;;;;;;;;;;;;;;;;;;5020482;28;19925;-57
2023/04/30 07:47:24;;;;;;;;;;;;;;;;;;5016635;28;20028;-55
2023/04/30 07:49:51;;;;;;;;;;;;;;;;;;5018918;28;19929;-58
2023/04/30 07:52:24;;;;;;;;;;;;;;;;;;5018977;28;19921;-55
2023/04/30 07:54:51;;;;;;;;;;;;;;;;;;5017690;28;20003;-60
2023/04/30 07:57:25;;;;;;;;;;;;;;;;;;5002552;28;19921;-55
2023/04/30 07:59:52;;;;;;;;;;;;;;;;;;5021775;28;19925;-50
2023/04/30 08:02:26;;;;;;;;;;;;;;;;;;5004682;28;19932;-47
2023/04/30 08:04:53;;;;;;;;;;;;;;;;;;5018872;28;20662;-47
2023/04/30 08:07:27;;;;;;;;;;;;;;;;;;5003405;28;19925;-50
2023/04/30 08:09:54;;;;;;;;;;;;;;;;;;5015639;28;19921;-47
2023/04/30 08:12:22;;;;;;;;;;;;;;;;;;5016806;28;19935;-47
2023/04/30 08:14:55;;;;;;;;;;;;;;;;;;5020501;28;19928;-61
2023/04/30 08:17:22;;;;;;;;;;;;;;;;;;5016130;28;20406;-60
2023/04/30 08:19:56;;;;;;;;;;;;;;;;;;5013538;28;19933;-61
2023/04/30 08:22:23;;;;;;;;;;;;;;;;;;5017982;28;19974;-61
2023/04/30 08:24:50;;;;;;;;;;;;;;;;;;5012945;28;20278;-46
2023/04/30 08:27:24;;;;;;;;;;;;;;;;;;5013807;28;20397;-57
2023/04/30 08:29:51;;;;;;;;;;;;;;;;;;5017709;28;19925;-57
2023/04/30 08:32:25;;;;;;;;;;;;;;;;;;5012522;28;19921;-54
2023/04/30 08:34:52;;;;;;;;;;;;;;;;;;5014429;28;19936;-58
2023/04/30 08:37:20;;;;;;;;;;;;;;;;;;5019389;28;19927;-57
2023/04/30 08:39:53;;;;;;;;;;;;;;;;;;5017580;28;19925;-58
2023/04/30 08:42:21;;;;;;;;;;;;;;;;;;5016792;28;19925;-58
2023/04/30 08:44:54;;;;;;;;;;;;;;;;;;5020476;28;19921;-58
2023/04/30 08:47:21;;;;;;;;;;;;;;;;;;5016875;28;19929;-55
2023/04/30 08:49:55;;;;;;;;;;;;;;;;;;5018186;28;20023;-54
2023/04/30 08:52:22;;;;;;;;;;;;;;;;;;5016477;28;19928;-47
2023/04/30 08:54:56;;;;;;;;;;;;;;;;;;5015747;28;19929;-46
2023/04/30 08:57:24;;;;;;;;;;;;;;;;;;5018340;28;19927;-47
2023/04/30 08:59:57;;;;;;;;;;;;;;;;;;5017921;28;19929;-52
2023/04/30 09:02:24;;;;;;;;;;;;;;;;;;5012868;28;20314;-48
2023/04/30 09:04:51;;;;;;;;;;;;;;;;;;5018176;28;19921;-47
2023/04/30 09:07:26;;;;;;;;;;;;;;;;;;5014396;28;20320;-46
2023/04/30 09:09:53;;;;;;;;;;;;;;;;;;5015194;28;19921;-60
2023/04/30 09:12:28;;;;;;;;;;;;;;;;;;5013102;28;19928;-60
2023/04/30 09:14:56;;;;;;;;;;;;;;;;;;5019788;28;20375;-48
2023/04/30 09:17:24;;;;;;;;;;;;;;;;;;5017500;28;19924;-48
2023/04/30 09:19:57;;;;;;;;;;;;;;;;;;5018950;28;20316;-45
2023/04/30 09:22:24;;;;;;;;;;;;;;;;;;5007651;28;19925;-47
2023/04/30 09:24:52;;;;;;;;;;;;;;;;;;5008998;28;20435;-48
2023/04/30 09:27:25;;;;;;;;;;;;;;;;;;5009699;28;20304;-46
2023/04/30 09:30:00;;;;;;;;;;;;;;;;;;5009592;28;19921;-61
2023/04/30 09:32:33;;;;;;;;;;;;;;;;;;5006916;28;20296;-48
2023/04/30 09:35:01;;;;;;;;;;;;;;;;;;5011770;28;19929;-49
2023/04/30 09:37:28;;;;;;;;;;;;;;;;;;5006128;28;20016;-49
2023/04/30 09:40:03;;;;;;;;;;;;;;;;;;5010856;28;19937;-48
2023/04/30 09:42:36;;;;;;;;;;;;;;;;;;5007130;28;19929;-54
2023/04/30 09:45:11;;;;;;;;;;;;;;;;;;5019028;28;19935;-49
2023/04/30 09:47:44;;;;;;;;;;;;;;;;;;5020530;28;19927;-60
2023/04/30 09:50:11;;;;;;;;;;;;;;;;;;5020293;28;19992;-61
2023/04/30 09:52:45;;;;;;;;;;;;;;;;;;5019997;28;19925;-61
2023/04/30 09:55:12;;;;;;;;;;;;;;;;;;5019035;28;19929;-61
2023/04/30 09:57:46;;;;;;;;;;;;;;;;;;5022927;28;20293;-61
2023/04/30 10:00:21;;;;;;;;;;;;;;;;;;5019868;28;19921;-62
2023/04/30 10:02:55;;;;;;;;;;;;;;;;;;5022325;28;20032;-61
2023/04/30 10:05:29;;;;;;;;;;;;;;;;;;5019292;28;19937;-56
2023/04/30 10:07:56;;;;;;;;;;;;;;;;;;5016421;28;20373;-58
2023/04/30 10:10:23;;;;;;;;;;;;;;;;;;5020489;28;20012;-57
2023/04/30 10:12:58;;;;;;;;;;;;;;;;;;5017785;28;19929;-57
2023/04/30 10:15:33;;;;;;;;;;;;;;;;;;5019574;28;20435;-51
2023/04/30 10:18:00;;;;;;;;;;;;;;;;;;5020150;28;19922;-57
2023/04/30 10:20:35;;;;;;;;;;;;;;;;;;5019330;28;19929;-57
2023/04/30 10:23:02;;;;;;;;;;;;;;;;;;5020186;28;20305;-51
2023/04/30 10:25:42;;;;;;;;;;;;;;;;;;5020282;28;19931;-57
2023/04/30 10:28:09;;;;;;;;;;;;;;;;;;5019846;28;19927;-55
2023/04/30 10:30:43;;;;;;;;;;;;;;;;;;5023412;28;19939;-54
2023/04/30 10:33:10;;;;;;;;;;;;;;;;;;5023535;28;19935;-54
2023/04/30 10:35:44;;;;;;;;;;;;;;;;;;5020428;28;19931;-61
2023/04/30 10:38:12;;;;;;;;;;;;;;;;;;5021142;28;19921;-61
2023/04/30 10:40:39;;;;;;;;;;;;;;;;;;5017540;28;19928;-62
2023/04/30 10:43:12;;;;;;;;;;;;;;;;;;5019372;28;19928;-61
2023/04/30 10:45:39;;;;;;;;;;;;;;;;;;5015971;28;20385;-52
2023/04/30 10:48:06;;;;;;;;;;;;;;;;;;5018378;28;19929;-48
2023/04/30 10:50:43;;;;;;;;;;;;;;;;;;5021413;28;20343;-48
2023/04/30 10:53:17;;;;;;;;;;;;;;;;;;5020285;28;20393;-48
2023/04/30 10:55:45;;;;;;;;;;;;;;;;;;5017882;28;19925;-49
2023/04/30 10:58:18;;;;;;;;;;;;;;;;;;5019464;28;20043;-51
2023/04/30 11:00:45;;;;;;;;;;;;;;;;;;5013486;28;20389;-51
2023/04/30 11:03:19;;;;;;;;;;;;;;;;;;5016122;28;19925;-61
2023/04/30 11:05:46;;;;;;;;;;;;;;;;;;5013592;28;19939;-61
2023/04/30 11:08:14;;;;;;;;;;;;;;;;;;5013423;28;19933;-61
2023/04/30 11:10:47;;;;;;;;;;;;;;;;;;5013722;28;19936;-61
2023/04/30 11:13:15;;;;;;;;;;;;;;;;;;4996215;28;20416;-51
2023/04/30 11:15:49;;;;;;;;;;;;;;;;;;5012922;28;19951;-50
2023/04/30 11:18:17;;;;;;;;;;;;;;;;;;4995463;28;19925;-48
2023/04/30 11:20:50;;;;;;;;;;;;;;;;;;5012733;28;20410;-49
2023/04/30 11:23:22;;;;;;;;;;;;;;;;;;5011444;28;20376;-47
2023/04/30 11:26:06;;;;;;;;;;;;;;;;;;5011157;28;19929;-48
2023/04/30 11:28:36;;;;;;;;;;;;;;;;;;5011194;28;20008;-51
2023/04/30 11:31:09;;;;;;;;;;;;;;;;;;5013406;28;19944;-61
2023/04/30 11:33:38;;;;;;;;;;;;;;;;;;4992517;28;19928;-59
2023/04/30 11:36:11;;;;;;;;;;;;;;;;;;5012461;28;19925;-60
2023/04/30 11:38:38;;;;;;;;;;;;;;;;;;5009368;28;19921;-59
2023/04/30 11:41:13;;;;;;;;;;;;;;;;;;5009828;28;19940;-60
2023/04/30 11:43:40;;;;;;;;;;;;;;;;;;5012455;28;20003;-63
2023/04/30 11:46:13;;;;;;;;;;;;;;;;;;5010669;28;19927;-58
2023/04/30 11:48:43;;;;;;;;;;;;;;;;;;5017934;28;20047;-59
2023/04/30 11:51:10;;;;;;;;;;;;;;;;;;5015842;28;20024;-54
2023/04/30 11:53:44;;;;;;;;;;;;;;;;;;5017248;28;20521;-57
2023/04/30 11:56:11;;;;;;;;;;;;;;;;;;5013302;28;19925;-56
2023/04/30 11:58:39;;;;;;;;;;;;;;;;;;5015986;28;19925;-59
2023/04/30 12:01:12;;;;;;;;;;;;;;;;;;5020305;28;19925;-58
2023/04/30 12:03:40;;;;;;;;;;;;;;;;;;5019144;28;20357;-57
2023/04/30 12:06:17;;;;;;;;;;;;;;;;;;5016374;28;19968;-58
2023/04/30 12:08:44;;;;;;;;;;;;;;;;;;5012098;28;19930;-56
2023/04/30 12:11:24;;;;;;;;;;;;;;;;;;5014493;28;19928;-58
2023/04/30 12:13:51;;;;;;;;;;;;;;;;;;5015840;28;19929;-58
2023/04/30 12:16:24;;;;;;;;;;;;;;;;;;5018267;28;19931;-58
2023/04/30 12:18:51;;;;;;;;;;;;;;;;;;5020117;28;19925;-59
2023/04/30 12:21:19;;;;;;;;;;;;;;;;;;5017026;28;19921;-54
2023/04/30 12:23:52;;;;;;;;;;;;;;;;;;5015660;28;19944;-50
2023/04/30 12:26:19;;;;;;;;;;;;;;;;;;5010930;28;19925;-55
2023/04/30 12:28:53;;;;;;;;;;;;;;;;;;5014497;28;20669;-55
2023/04/30 12:31:20;;;;;;;;;;;;;;;;;;5004781;28;19936;-55
2023/04/30 12:33:55;;;;;;;;;;;;;;;;;;5013327;28;19936;-55
2023/04/30 12:36:22;;;;;;;;;;;;;;;;;;5011049;28;20027;-56
2023/04/30 12:38:56;;;;;;;;;;;;;;;;;;5015057;28;19983;-55
2023/04/30 12:41:23;;;;;;;;;;;;;;;;;;5017233;28;19959;-55
2023/04/30 12:43:57;;;;;;;;;;;;;;;;;;5019490;28;19925;-53
2023/04/30 12:46:24;;;;;;;;;;;;;;;;;;5011992;28;19929;-56
2023/04/30 12:48:52;;;;;;;;;;;;;;;;;;5006540;28;19921;-57
2023/04/30 12:51:27;;;;;;;;;;;;;;;;;;5012600;28;19921;-62
2023/04/30 12:53:54;;;;;;;;;;;;;;;;;;5008695;28;19934;-62
2023/04/30 12:56:27;;;;;;;;;;;;;;;;;;5010979;28;19939;-62
2023/04/30 12:58:54;;;;;;;;;;;;;;;;;;5011690;28;19927;-62
2023/04/30 13:01:28;;;;;;;;;;;;;;;;;;5009173;28;19931;-62
2023/04/30 13:03:55;;;;;;;;;;;;;;;;;;5009140;28;19921;-62
2023/04/30 13:06:31;;;;;;;;;;;;;;;;;;5011021;28;20007;-57
2023/04/30 13:08:59;;;;;;;;;;;;;;;;;;5011183;28;20569;-57
2023/04/30 13:11:32;;;;;;;;;;;;;;;;;;5008765;28;19921;-56
2023/04/30 13:13:59;;;;;;;;;;;;;;;;;;5009825;28;19924;-58
2023/04/30 13:16:33;;;;;;;;;;;;;;;;;;5006791;28;19930;-52
2023/04/30 13:19:00;;;;;;;;;;;;;;;;;;5012915;28;19930;-58
2023/04/30 13:21:35;;;;;;;;;;;;;;;;;;5012024;28;19931;-57
2023/04/30 13:24:02;;;;;;;;;;;;;;;;;;5012245;28;19991;-57
2023/04/30 13:26:29;;;;;;;;;;;;;;;;;;5011944;28;20273;-56
2023/04/30 13:29:03;;;;;;;;;;;;;;;;;;5012808;28;22447;-57
2023/04/30 13:31:30;;;;;;;;;;;;;;;;;;5013627;28;20300;-56
2023/04/30 13:34:05;;;;;;;;;;;;;;;;;;5011237;28;20061;-62
2023/04/30 13:36:32;;;;;;;;;;;;;;;;;;5010741;28;19921;-60
2023/04/30 13:39:06;;;;;;;;;;;;;;;;;;5019674;28;19921;-60
2023/04/30 13:41:33;;;;;;;;;;;;;;;;;;5022003;28;20048;-61
2023/04/30 13:44:08;;;;;;;;;;;;;;;;;;5018677;28;20297;-47
2023/04/30 13:46:35;;;;;;;;;;;;;;;;;;5016048;28;19964;-54
2023/04/30 13:49:02;;;;;;;;;;;;;;;;;;5016358;28;20050;-57
2023/04/30 13:51:35;;;;;;;;;;;;;;;;;;5020766;28;19921;-57
2023/04/30 13:54:02;;;;;;;;;;;;;;;;;;5024082;28;19929;-57
2023/04/30 13:56:30;;;;;;;;;;;;;;;;;;5022541;28;19931;-55
2023/04/30 13:59:04;;;;;;;;;;;;;;;;;;5019420;28;19931;-58
2023/04/30 14:01:32;;;;;;;;;;;;;;;;;;5019037;28;20526;-54
2023/04/30 14:04:07;;;;;;;;;;;;;;;;;;5017166;28;20015;-50
2023/04/30 14:06:34;;;;;;;;;;;;;;;;;;5014921;28;20792;-54
2023/04/30 14:09:07;;;;;;;;;;;;;;;;;;5016339;28;19921;-53
2023/04/30 14:11:34;;;;;;;;;;;;;;;;;;5019064;28;20023;-61
2023/04/30 14:14:09;;;;;;;;;;;;;;;;;;5020678;28;19929;-62
2023/04/30 14:16:36;;;;;;;;;;;;;;;;;;5017509;28;20368;-58
2023/04/30 14:19:04;;;;;;;;;;;;;;;;;;5017649;28;20389;-58
2023/04/30 14:21:37;;;;;;;;;;;;;;;;;;5005677;28;19921;-58
2023/04/30 14:24:05;;;;;;;;;;;;;;;;;;5016522;28;20300;-54
2023/04/30 14:26:39;;;;;;;;;;;;;;;;;;5015538;28;19925;-58
2023/04/30 14:29:06;;;;;;;;;;;;;;;;;;5020076;28;19921;-57
2023/04/30 14:31:47;;;;;;;;;;;;;;;;;;5021011;28;20403;-55
2023/04/30 14:34:14;;;;;;;;;;;;;;;;;;5020838;28;19928;-58
2023/04/30 14:36:48;;;;;;;;;;;;;;;;;;5019056;28;19929;-57
2023/04/30 14:39:15;;;;;;;;;;;;;;;;;;5020365;28;20020;-58
2023/04/30 14:41:49;;;;;;;;;;;;;;;;;;5017928;28;19929;-51
2023/04/30 14:44:17;;;;;;;;;;;;;;;;;;5021228;28;19974;-52
2023/04/30 14:46:50;;;;;;;;;;;;;;;;;;5017306;28;19927;-47
2023/04/30 14:49:17;;;;;;;;;;;;;;;;;;5017676;28;19931;-51
2023/04/30 14:51:44;;;;;;;;;;;;;;;;;;5016690;28;20020;-51
2023/04/30 14:54:18;;;;;;;;;;;;;;;;;;5020156;28;20016;-53
2023/04/30 14:56:46;;;;;;;;;;;;;;;;;;5021097;28;20020;-46
2023/04/30 14:59:20;;;;;;;;;;;;;;;;;;5019645;28;19920;-58
2023/04/30 15:01:47;;;;;;;;;;;;;;;;;;5017731;28;19921;-57
2023/04/30 15:04:14;;;;;;;;;;;;;;;;;;5020996;28;19984;-58
2023/04/30 15:06:47;;;;;;;;;;;;;;;;;;5016405;28;19929;-58
2023/04/30 15:09:15;;;;;;;;;;;;;;;;;;5018178;28;20108;-51
2023/04/30 15:11:49;;;;;;;;;;;;;;;;;;5016211;28;19921;-62
2023/04/30 15:14:17;;;;;;;;;;;;;;;;;;5020544;28;19964;-62
2023/04/30 15:16:44;;;;;;;;;;;;;;;;;;5016498;28;19935;-62
2023/04/30 15:19:17;;;;;;;;;;;;;;;;;;5016120;28;20297;-62
2023/04/30 15:21:51;;;;;;;;;;;;;;;;;;5019520;28;20016;-63
2023/04/30 15:24:18;;;;;;;;;;;;;;;;;;5013552;28;19961;-62
2023/04/30 15:26:53;;;;;;;;;;;;;;;;;;5000692;28;19927;-60
2023/04/30 15:29:21;;;;;;;;;;;;;;;;;;5003636;28;20032;-61
2023/04/30 15:31:51;;;;;;;;;;;;;;;;;;5001751;28;19936;-60
2023/04/30 15:34:25;;;;;;;;;;;;;;;;;;5000555;28;19957;-60
2023/04/30 15:36:52;;;;;;;;;;;;;;;;;;5001117;28;19925;-58
2023/04/30 15:39:25;;;;;;;;;;;;;;;;;;5000879;28;20250;-52
2023/04/30 15:41:52;;;;;;;;;;;;;;;;;;4998127;28;19930;-54
2023/04/30 15:44:19;;;;;;;;;;;;;;;;;;4993898;28;20017;-54
2023/04/30 15:46:53;;;;;;;;;;;;;;;;;;4997350;28;19932;-51
2023/04/30 15:49:22;;;;;;;;;;;;;;;;;;4997987;28;20379;-55
2023/04/30 15:51:49;;;;;;;;;;;;;;;;;;4998961;28;20344;-56
2023/04/30 15:54:22;;;;;;;;;;;;;;;;;;4997533;28;19931;-58
2023/04/30 15:56:50;;;;;;;;;;;;;;;;;;4994328;28;19926;-52
2023/04/30 15:59:24;;;;;;;;;;;;;;;;;;4995146;28;19925;-57
2023/04/30 16:01:51;;;;;;;;;;;;;;;;;;4999740;28;19929;-53
2023/04/30 16:04:18;;;;;;;;;;;;;;;;;;5000219;28;19922;-56
2023/04/30 16:06:52;;;;;;;;;;;;;;;;;;4994477;28;19926;-58
2023/04/30 16:09:19;;;;;;;;;;;;;;;;;;4988187;28;19929;-55
2023/04/30 16:11:53;;;;;;;;;;;;;;;;;;4991665;28;20412;-58
2023/04/30 16:14:20;;;;;;;;;;;;;;;;;;4999246;28;20912;-52
2023/04/30 16:16:54;;;;;;;;;;;;;;;;;;4998882;28;20008;-54
2023/04/30 16:19:21;;;;;;;;;;;;;;;;;;4998677;28;19925;-54
2023/04/30 16:21:48;;;;;;;;;;;;;;;;;;4996862;28;19940;-55
2023/04/30 16:24:21;;;;;;;;;;;;;;;;;;4998086;28;19932;-61
2023/04/30 16:26:48;;;;;;;;;;;;;;;;;;5016395;28;20463;-54
2023/04/30 16:29:22;;;;;;;;;;;;;;;;;;5016992;28;19925;-56
2023/04/30 16:31:50;;;;;;;;;;;;;;;;;;5011294;28;19929;-55
2023/04/30 16:34:25;;;;;;;;;;;;;;;;;;5015678;28;19925;-58
2023/04/30 16:36:52;;;;;;;;;;;;;;;;;;5016438;28;20015;-54
2023/04/30 16:39:26;;;;;;;;;;;;;;;;;;4995347;28;19957;-57
2023/04/30 16:41:53;;;;;;;;;;;;;;;;;;5015909;28;19952;-58
2023/04/30 16:44:20;;;;;;;;;;;;;;;;;;5013926;28;20027;-58
2023/04/30 16:46:56;;;;;;;;;;;;;;;;;;5006839;28;20007;-59
2023/04/30 16:49:24;;;;;;;;;;;;;;;;;;5007092;28;19936;-59
2023/04/30 16:51:57;;;;;;;;;;;;;;;;;;5006958;28;19926;-62
2023/04/30 16:54:24;;;;;;;;;;;;;;;;;;5010257;28;21684;-62
2023/04/30 16:56:51;;;;;;;;;;;;;;;;;;5009985;28;19921;-58
2023/04/30 16:59:25;;;;;;;;;;;;;;;;;;5014377;28;19935;-57
2023/04/30 17:01:55;;;;;;;;;;;;;;;;;;5010314;28;20921;-55
2023/04/30 17:04:28;;;;;;;;;;;;;;;;;;5015341;28;20322;-56
2023/04/30 17:06:56;;;;;;;;;;;;;;;;;;5016264;28;21271;-58